Sarles, North Dakota
Current Conditions -  °F | °C
As of 2:35 AM on Saturday 25 Oct 2014 (Local Time) from K06D Reporting Station
Clear Clear  
Wind Chill: 42°   Ceiling: Unl
Heat Index: 48°   Visibility: 10mi
Dew Point: 28°   Wind: 15mph
Humidity: 46%   Direction: 300°WNW
Pressure: 29.98"   Gusts: 23mph
Location:  48.95°N, 99°W
Report Text: K06D 250735Z AUTO 30013G20KT 10SM CLR 09/M02 A2998 RMK AO2
Loading
Personal Weather Stations






























Interactive Weather Map
Tropical Storm Tracking
New forecast layout! Learn more

10-Day Weather Forecast

Advertisements
Track Severe Weather on mobile